Time;durP1;ratioP1;P1;durP2;ratioP2;P2;SDS_P1;SDS_P2;PMS_P1;PMS_P2;Temp;Humidity;BMP_temperature;BMP_pressure;BME280_temperature;BME280_humidity;BME280_pressure;Samples;Min_cycle;Max_cycle;Signal;HPM_P1;HPM_P2
2023/08/13 00:00:04;;;;;;;6.00;4.10;;;;;;;24.75;57.63;101902.10;110636;1267;22136;-51
2023/08/13 00:02:33;;;;;;;7.50;4.60;;;;;;;24.71;57.64;101906.41;110588;1275;22384;-50
2023/08/13 00:05:00;;;;;;;6.00;4.60;;;;;;;24.68;57.66;101903.76;110552;1275;22166;-51
2023/08/13 00:07:28;;;;;;;4.80;3.90;;;;;;;24.66;57.51;101904.78;110575;1259;22144;-51
2023/08/13 00:09:55;;;;;;;5.10;4.10;;;;;;;24.62;57.53;101902.39;110297;1262;22342;-50
2023/08/13 00:12:23;;;;;;;5.80;4.60;;;;;;;24.57;57.66;101901.61;110570;1256;23293;-51
2023/08/13 00:14:50;;;;;;;5.00;4.50;;;;;;;24.53;57.91;101905.58;110551;1255;22712;-50
2023/08/13 00:17:18;;;;;;;5.40;4.80;;;;;;;24.50;58.05;101902.06;110574;1267;22742;-52
2023/08/13 00:19:46;;;;;;;5.10;4.60;;;;;;;24.47;58.30;101905.08;110608;1257;22149;-51
2023/08/13 00:22:13;;;;;;;8.10;4.80;;;;;;;24.45;58.54;101901.34;110621;1256;22979;-51
2023/08/13 00:24:41;;;;;;;6.90;4.70;;;;;;;24.44;58.78;101903.52;110560;1272;22172;-51
2023/08/13 00:27:08;;;;;;;5.00;4.50;;;;;;;24.45;59.15;101903.62;110622;1257;23148;-50
2023/08/13 00:29:37;;;;;;;8.70;4.60;;;;;;;24.45;59.36;101900.97;110559;1257;22317;-50
2023/08/13 00:32:05;;;;;;;6.10;4.80;;;;;;;24.46;59.67;101897.88;110377;1256;22371;-51
2023/08/13 00:34:32;;;;;;;5.70;4.60;;;;;;;24.49;59.87;101896.45;110157;1275;22158;-51
2023/08/13 00:37:00;;;;;;;4.90;4.30;;;;;;;24.51;59.99;101893.99;110580;1253;22355;-51
2023/08/13 00:39:28;;;;;;;4.80;4.40;;;;;;;24.55;60.01;101891.48;110527;1267;22834;-51
2023/08/13 00:41:55;;;;;;;5.90;4.70;;;;;;;24.58;60.20;101889.16;110536;1253;22191;-51
2023/08/13 00:44:23;;;;;;;6.30;4.40;;;;;;;24.60;60.32;101887.39;110568;1272;22350;-51
2023/08/13 00:46:50;;;;;;;5.70;4.60;;;;;;;24.64;60.40;101885.23;110568;1258;22766;-50
2023/08/13 00:49:18;;;;;;;7.40;5.10;;;;;;;24.67;60.27;101887.16;110520;1259;23111;-50
2023/08/13 00:51:46;;;;;;;6.30;5.40;;;;;;;24.70;59.98;101886.45;110620;1257;22432;-50
2023/08/13 00:54:13;;;;;;;5.80;5.10;;;;;;;24.72;59.66;101887.00;110582;1256;22275;-50
2023/08/13 00:56:41;;;;;;;6.70;4.90;;;;;;;24.73;59.46;101888.41;110306;1259;23182;-51
2023/08/13 00:59:09;;;;;;;6.30;4.70;;;;;;;24.72;59.18;101887.73;109790;1275;1002100;-51
2023/08/13 01:01:37;;;;;;;7.50;5.30;;;;;;;24.70;58.95;101890.34;110316;1259;23098;-52
2023/08/13 01:04:05;;;;;;;6.90;5.50;;;;;;;24.70;58.71;101888.77;110266;1262;22214;-51
2023/08/13 01:06:32;;;;;;;10.50;5.90;;;;;;;24.68;58.46;101887.79;110582;1256;22150;-52
2023/08/13 01:09:14;;;;;;;10.10;5.80;;;;;;;24.69;58.23;101888.59;110578;1270;22136;-51
2023/08/13 01:12:18;;;;;;;10.60;5.40;;;;;;;24.69;58.03;101888.59;110403;1258;22145;-51
2023/08/13 01:15:18;;;;;;;5.40;4.90;;;;;;;24.69;57.79;101886.71;109925;1265;22904;-50
2023/08/13 01:17:48;;;;;;;9.50;5.50;;;;;;;24.68;57.93;101882.83;109605;1270;22335;-51
2023/08/13 01:20:18;;;;;;;6.60;5.50;;;;;;;24.69;57.78;101885.08;109546;1284;22187;-51
2023/08/13 01:22:46;;;;;;;5.70;5.20;;;;;;;24.69;57.70;101886.46;109550;1271;22342;-51
2023/08/13 01:25:14;;;;;;;7.50;5.70;;;;;;;24.69;57.80;101884.34;109540;1284;22186;-51
2023/08/13 01:28:19;;;;;;;6.90;5.20;;;;;;;24.69;57.37;101884.56;109465;1273;22277;-51
2023/08/13 01:30:56;;;;;;;6.10;5.00;;;;;;;24.68;56.85;101881.95;109664;1270;22962;-51
2023/08/13 01:33:34;;;;;;;6.30;5.60;;;;;;;24.68;56.67;101881.42;109277;1286;22169;-51
2023/08/13 01:36:04;;;;;;;6.20;5.50;;;;;;;24.68;56.23;101884.26;109236;1273;22224;-51
2023/08/13 01:38:32;;;;;;;6.50;5.50;;;;;;;24.67;56.14;101879.85;109555;1272;22180;-51
2023/08/13 01:41:05;;;;;;;6.30;5.40;;;;;;;24.67;56.39;101885.00;109547;1272;23042;-51
2023/08/13 01:43:33;;;;;;;7.30;5.70;;;;;;;24.67;56.43;101883.40;109663;1284;23255;-51
2023/08/13 01:46:01;;;;;;;6.20;5.60;;;;;;;24.68;56.70;101884.98;109652;1283;22401;-51
2023/08/13 01:48:29;;;;;;;7.70;6.20;;;;;;;24.68;56.63;101884.59;109651;1287;22981;-51
2023/08/13 01:50:57;;;;;;;5.70;5.10;;;;;;;24.69;56.68;101887.05;109695;1269;22393;-51
2023/08/13 01:53:24;;;;;;;10.70;5.10;;;;;;;24.70;56.55;101887.68;109899;1278;22879;-51
2023/08/13 01:55:52;;;;;;;6.20;5.40;;;;;;;24.70;56.11;101892.13;110493;1275;22308;-51
2023/08/13 01:58:19;;;;;;;8.20;5.60;;;;;;;24.70;55.65;101893.19;110267;1272;23132;-51
2023/08/13 02:00:47;;;;;;;7.60;5.60;;;;;;;24.68;55.53;101892.95;110557;1271;22370;-51
2023/08/13 02:03:15;;;;;;;6.90;5.60;;;;;;;24.68;55.55;101895.61;110610;1256;22391;-50
2023/08/13 02:05:42;;;;;;;6.10;5.50;;;;;;;24.69;55.82;101900.73;110588;1257;22134;-51
2023/08/13 02:08:10;;;;;;;6.30;5.60;;;;;;;24.68;56.22;101899.14;110584;1260;22303;-51
2023/08/13 02:10:37;;;;;;;7.30;5.50;;;;;;;24.69;56.18;101897.84;110574;1267;22341;-51
2023/08/13 02:13:05;;;;;;;6.10;5.50;;;;;;;24.69;55.99;101897.67;110579;1259;22297;-51
2023/08/13 02:15:32;;;;;;;6.70;6.00;;;;;;;24.68;55.71;101899.33;110223;1275;22103;-51
2023/08/13 02:18:00;;;;;;;6.00;5.40;;;;;;;24.68;55.63;101897.75;110577;1275;22347;-50
2023/08/13 02:20:28;;;;;;;8.80;6.10;;;;;;;24.67;55.85;101899.93;110594;1257;22324;-51
2023/08/13 02:22:56;;;;;;;6.60;5.60;;;;;;;24.66;56.12;101907.63;110572;1270;22807;-50
2023/08/13 02:25:24;;;;;;;7.30;5.90;;;;;;;24.67;56.31;101904.55;110568;1272;22395;-51
2023/08/13 02:27:51;;;;;;;7.50;6.30;;;;;;;24.66;56.29;101907.09;110427;1259;22185;-51
2023/08/13 02:30:19;;;;;;;6.60;5.90;;;;;;;24.66;56.41;101909.75;110216;1273;22520;-51
2023/08/13 02:32:47;;;;;;;6.20;5.50;;;;;;;24.65;56.56;101910.16;110584;1257;22304;-51
2023/08/13 02:35:16;;;;;;;8.00;6.00;;;;;;;24.64;56.71;101911.83;110238;1260;23091;-51
2023/08/13 02:37:43;;;;;;;7.10;5.60;;;;;;;24.63;56.81;101914.38;110517;1270;22407;-51
2023/08/13 02:40:11;;;;;;;6.60;5.90;;;;;;;24.61;56.81;101914.30;110583;1264;22415;-51
2023/08/13 02:42:38;;;;;;;7.00;5.60;;;;;;;24.61;56.84;101913.65;110288;1259;22361;-51
2023/08/13 02:45:06;;;;;;;7.80;5.50;;;;;;;24.60;57.11;101913.69;110546;1272;22124;-51
2023/08/13 02:47:34;;;;;;;6.30;5.20;;;;;;;24.59;57.44;101913.20;110558;1257;22152;-51
2023/08/13 02:50:02;;;;;;;7.90;5.80;;;;;;;24.59;57.50;101913.55;110532;1270;22113;-51
2023/08/13 02:52:30;;;;;;;10.20;6.20;;;;;;;24.60;57.58;101916.38;109817;1256;1002425;-51
2023/08/13 02:54:58;;;;;;;5.70;5.10;;;;;;;24.60;57.76;101913.84;110208;1263;22872;-51
2023/08/13 02:57:25;;;;;;;6.60;5.00;;;;;;;24.61;57.70;101913.95;110575;1256;22883;-51
2023/08/13 02:59:54;;;;;;;6.80;5.40;;;;;;;24.61;57.55;101914.16;110542;1273;22408;-51
2023/08/13 03:02:21;;;;;;;7.20;5.50;;;;;;;24.60;57.63;101915.95;110593;1255;22310;-51
2023/08/13 03:04:49;;;;;;;7.40;5.30;;;;;;;24.59;57.78;101917.26;110270;1269;22687;-51
2023/08/13 03:07:16;;;;;;;5.60;5.10;;;;;;;24.59;57.88;101918.16;110475;1259;22357;-51
2023/08/13 03:09:44;;;;;;;6.00;5.30;;;;;;;24.58;57.74;101923.20;110583;1267;22150;-51
2023/08/13 03:12:11;;;;;;;6.10;5.30;;;;;;;24.57;57.68;101920.23;110572;1265;22302;-50
2023/08/13 03:14:41;;;;;;;5.80;5.20;;;;;;;24.56;57.61;101922.63;110432;1273;22283;-51
2023/08/13 03:17:09;;;;;;;6.10;4.70;;;;;;;24.54;57.41;101923.09;110420;1273;22149;-51
2023/08/13 03:19:37;;;;;;;6.10;5.00;;;;;;;24.52;57.29;101925.87;110582;1260;22415;-51
2023/08/13 03:22:04;;;;;;;5.30;4.90;;;;;;;24.53;57.42;101925.68;110441;1267;22378;-51
2023/08/13 03:24:32;;;;;;;6.60;5.20;;;;;;;24.54;57.65;101925.96;110482;1260;22165;-51
2023/08/13 03:27:00;;;;;;;9.70;5.60;;;;;;;24.55;57.59;101928.39;110156;1275;22124;-51
2023/08/13 03:29:28;;;;;;;6.30;5.70;;;;;;;24.57;57.61;101931.59;110549;1275;22381;-51
2023/08/13 03:31:56;;;;;;;7.10;5.60;;;;;;;24.59;57.46;101934.14;110421;1275;22388;-50
2023/08/13 03:34:24;;;;;;;7.20;5.90;;;;;;;24.60;55.78;101935.14;110530;1270;23195;-50
2023/08/13 03:36:52;;;;;;;7.20;6.50;;;;;;;24.60;53.83;101938.16;110169;1267;23199;-51
2023/08/13 03:39:20;;;;;;;7.20;6.40;;;;;;;24.61;52.68;101942.16;110142;1275;22384;-50
2023/08/13 03:41:47;;;;;;;7.80;6.50;;;;;;;24.63;51.90;101944.16;110641;1253;22290;-50
2023/08/13 03:44:15;;;;;;;7.20;6.00;;;;;;;24.65;51.70;101939.98;110564;1273;22148;-50
2023/08/13 03:46:43;;;;;;;8.30;7.10;;;;;;;24.67;51.30;101939.48;110583;1269;22400;-51
2023/08/13 03:49:10;;;;;;;6.80;6.10;;;;;;;24.68;50.84;101939.09;110595;1275;22406;-50
2023/08/13 03:51:38;;;;;;;7.50;6.70;;;;;;;24.68;50.75;101938.57;110559;1256;22402;-51
2023/08/13 03:54:05;;;;;;;8.30;6.30;;;;;;;24.68;50.71;101938.90;110314;1267;22163;-50
2023/08/13 03:56:36;;;;;;;7.00;6.40;;;;;;;24.68;50.97;101936.24;110442;1260;22356;-51
2023/08/13 03:59:04;;;;;;;7.20;6.50;;;;;;;24.69;50.75;101940.47;110385;1267;23157;-51
2023/08/13 04:01:32;;;;;;;7.30;6.50;;;;;;;24.68;50.79;101941.91;110323;1269;23126;-51
2023/08/13 04:03:59;;;;;;;7.80;6.20;;;;;;;24.68;50.30;101942.61;110214;1262;22252;-51
2023/08/13 04:06:27;;;;;;;6.70;6.10;;;;;;;24.68;50.11;101943.16;110565;1275;22344;-51
2023/08/13 04:08:55;;;;;;;6.60;5.90;;;;;;;24.68;50.29;101944.60;110627;1257;22310;-50
2023/08/13 04:11:22;;;;;;;8.70;6.50;;;;;;;24.67;50.31;101946.59;110539;1254;23105;-50
2023/08/13 04:13:50;;;;;;;8.00;6.20;;;;;;;24.67;50.17;101946.08;110546;1269;22638;-50
2023/08/13 04:16:17;;;;;;;9.40;6.40;;;;;;;24.67;50.10;101947.10;110593;1257;23045;-50
2023/08/13 04:18:46;;;;;;;8.70;6.30;;;;;;;24.68;49.95;101946.91;110587;1255;22871;-51
2023/08/13 04:21:14;;;;;;;7.80;7.00;;;;;;;24.68;49.82;101950.80;110212;1263;22319;-50
2023/08/13 04:23:41;;;;;;;13.60;7.20;;;;;;;24.67;49.97;101947.99;110473;1275;22399;-50
2023/08/13 04:26:09;;;;;;;9.50;6.70;;;;;;;24.68;50.15;101949.58;110374;1274;22429;-50
2023/08/13 04:28:36;;;;;;;6.70;6.10;;;;;;;24.67;49.87;101952.61;110365;1276;22179;-51
2023/08/13 04:31:04;;;;;;;8.90;6.50;;;;;;;24.68;49.82;101949.19;110332;1257;22203;-51
2023/08/13 04:33:34;;;;;;;6.70;6.10;;;;;;;24.69;49.78;101951.61;110179;1260;22377;-51
2023/08/13 04:36:02;;;;;;;7.30;6.60;;;;;;;24.72;50.02;101955.73;110270;1257;22321;-51
2023/08/13 04:38:30;;;;;;;7.10;6.40;;;;;;;24.74;49.78;101958.06;110164;1273;22359;-51
2023/08/13 04:41:00;;;;;;;7.40;6.50;;;;;;;24.77;49.85;101953.98;110162;1261;22174;-51
2023/08/13 04:43:28;;;;;;;7.80;6.30;;;;;;;24.78;49.79;101958.69;110007;1273;23149;-51
2023/08/13 04:45:57;;;;;;;7.70;6.70;;;;;;;24.81;49.70;101960.50;110034;1281;22168;-51
2023/08/13 04:48:44;;;;;;;6.60;6.10;;;;;;;24.83;49.85;101961.80;110101;1273;22338;-51
2023/08/13 04:51:16;;;;;;;;;;;;;;;24.84;49.85;101961.87;109983;1280;23274;-51
2023/08/13 04:53:44;;;;;;;7.10;6.40;;;;;;;24.86;49.90;101966.04;110019;1260;22905;-51
2023/08/13 04:56:12;;;;;;;7.20;6.50;;;;;;;24.87;50.05;101967.77;109920;1267;22881;-51
2023/08/13 04:58:40;;;;;;;7.00;6.30;;;;;;;24.88;50.04;101965.20;110015;1275;22152;-50
2023/08/13 05:01:08;;;;;;;6.50;5.90;;;;;;;24.90;51.68;101965.59;110083;1279;23256;-51
2023/08/13 05:03:37;;;;;;;6.60;5.40;;;;;;;24.92;52.55;101967.05;110115;1263;22212;-51
2023/08/13 05:06:04;;;;;;;6.70;5.80;;;;;;;24.94;52.92;101965.70;110135;1257;23059;-51
2023/08/13 05:08:32;;;;;;;6.70;6.10;;;;;;;24.95;53.19;101971.63;110113;1273;22396;-51
2023/08/13 05:11:00;;;;;;;8.30;5.80;;;;;;;24.98;53.46;101971.66;110218;1279;22202;-51
2023/08/13 05:13:27;;;;;;;7.30;5.40;;;;;;;24.99;53.76;101970.90;110009;1264;22197;-50
2023/08/13 05:15:55;;;;;;;8.80;5.90;;;;;;;24.99;53.82;101974.44;110165;1263;23064;-51
2023/08/13 05:18:23;;;;;;;6.00;5.40;;;;;;;25.00;54.04;101980.73;110488;1267;23081;-52
2023/08/13 05:20:50;;;;;;;10.00;5.70;;;;;;;25.02;54.12;101981.14;110638;1267;22165;-50
2023/08/13 05:23:18;;;;;;;7.10;6.30;;;;;;;25.05;53.93;101983.11;110155;1263;23115;-50
2023/08/13 05:25:45;;;;;;;6.80;6.10;;;;;;;25.07;54.11;101983.52;110597;1253;22793;-50
2023/08/13 05:28:13;;;;;;;6.20;5.60;;;;;;;25.08;54.32;101986.27;110567;1257;22791;-51
2023/08/13 05:30:41;;;;;;;6.20;5.60;;;;;;;25.10;54.34;101986.34;110513;1270;22241;-51
2023/08/13 05:33:09;;;;;;;6.20;5.60;;;;;;;25.12;54.16;101985.31;110562;1275;23003;-51
2023/08/13 05:35:37;;;;;;;6.70;5.40;;;;;;;25.13;53.80;101985.41;110180;1260;22408;-51
2023/08/13 05:38:05;;;;;;;7.10;5.50;;;;;;;25.16;53.64;101983.61;110565;1263;22165;-51
2023/08/13 05:40:33;;;;;;;6.70;5.90;;;;;;;25.24;53.77;101988.79;110571;1273;23132;-51
2023/08/13 05:43:02;;;;;;;7.30;5.30;;;;;;;25.37;53.20;101995.39;110418;1273;22318;-51
2023/08/13 05:45:29;;;;;;;8.10;5.60;;;;;;;25.52;52.87;101993.94;110580;1257;22963;-50
2023/08/13 05:47:57;;;;;;;6.30;5.60;;;;;;;25.67;52.61;101996.14;110604;1267;22407;-50
2023/08/13 05:50:24;;;;;;;7.70;5.50;;;;;;;25.83;52.46;101999.37;110589;1256;22465;-51
2023/08/13 05:52:52;;;;;;;6.20;5.40;;;;;;;25.98;51.77;101998.89;110546;1270;22362;-50
2023/08/13 05:55:20;;;;;;;8.70;5.60;;;;;;;26.09;51.02;101997.64;110653;1254;22335;-51
2023/08/13 05:57:47;;;;;;;6.50;5.80;;;;;;;26.17;50.79;101994.83;110611;1257;22428;-51
2023/08/13 06:00:15;;;;;;;7.50;5.40;;;;;;;26.25;50.75;101999.59;110525;1275;22140;-51
2023/08/13 06:02:43;;;;;;;6.90;6.30;;;;;;;26.34;50.53;102002.70;110288;1257;22368;-52
2023/08/13 06:05:11;;;;;;;8.60;5.90;;;;;;;26.44;50.29;102002.92;110572;1256;22136;-51
2023/08/13 06:07:38;;;;;;;7.00;5.70;;;;;;;26.53;50.12;102002.98;110571;1257;22175;-50
2023/08/13 06:10:06;;;;;;;8.10;6.00;;;;;;;26.62;50.03;102003.25;110581;1256;22297;-51
2023/08/13 06:12:33;;;;;;;6.40;5.60;;;;;;;26.69;49.78;102005.95;110506;1257;22179;-51
2023/08/13 06:15:01;;;;;;;8.70;5.30;;;;;;;26.72;49.76;102010.02;110551;1254;22306;-50
2023/08/13 06:17:29;;;;;;;6.50;5.90;;;;;;;26.74;49.84;102010.97;110566;1254;22120;-51
2023/08/13 06:19:57;;;;;;;7.00;5.50;;;;;;;26.76;49.93;102013.88;110591;1255;22159;-51
2023/08/13 06:22:25;;;;;;;6.70;6.00;;;;;;;26.79;49.91;102013.85;110580;1254;23058;-51
2023/08/13 06:24:53;;;;;;;6.40;5.80;;;;;;;26.80;49.93;102013.40;110257;1260;22372;-51
2023/08/13 06:27:22;;;;;;;6.10;5.50;;;;;;;26.81;49.95;102018.10;110519;1275;23046;-51
2023/08/13 06:29:49;;;;;;;5.80;5.30;;;;;;;26.85;49.66;102021.27;110488;1267;22297;-50
2023/08/13 06:32:35;;;;;;;6.40;5.80;;;;;;;26.87;49.63;102026.80;110593;1269;22354;-50
2023/08/13 06:35:04;;;;;;;5.90;5.30;;;;;;;26.87;49.67;102030.75;110586;1267;22156;-51
2023/08/13 06:37:32;;;;;;;6.60;5.70;;;;;;;26.86;49.98;102027.74;109786;1253;1002360;-51
2023/08/13 06:40:10;;;;;;;6.40;5.80;;;;;;;26.85;50.24;102024.79;110555;1256;22357;-51
2023/08/13 06:42:37;;;;;;;7.30;5.90;;;;;;;26.86;50.47;102025.10;110338;1257;22360;-51
2023/08/13 06:45:05;;;;;;;6.50;5.80;;;;;;;26.89;50.52;102029.13;110213;1275;22398;-50
2023/08/13 06:47:33;;;;;;;6.70;5.70;;;;;;;26.92;50.30;102034.10;110535;1269;22152;-50
2023/08/13 06:50:01;;;;;;;7.80;6.20;;;;;;;26.94;50.30;102036.80;110610;1253;22345;-50
2023/08/13 06:52:28;;;;;;;7.20;5.90;;;;;;;26.96;50.09;102038.07;110359;1257;22126;-51
2023/08/13 06:54:56;;;;;;;6.20;5.60;;;;;;;26.97;50.00;102039.08;110601;1254;22398;-50
2023/08/13 06:57:23;;;;;;;6.00;5.40;;;;;;;26.98;49.94;102037.23;110591;1256;22187;-51
2023/08/13 06:59:51;;;;;;;6.10;5.60;;;;;;;26.99;49.92;102037.48;110667;1253;22394;-51
2023/08/13 07:02:18;;;;;;;9.50;5.70;;;;;;;27.00;49.76;102037.25;110587;1256;23212;-51
2023/08/13 07:04:46;;;;;;;7.20;6.00;;;;;;;27.00;49.90;102034.92;110312;1260;22411;-51
2023/08/13 07:07:13;;;;;;;6.10;5.50;;;;;;;27.01;50.03;102043.23;110557;1256;22311;-51
2023/08/13 07:09:41;;;;;;;8.20;5.40;;;;;;;27.05;50.16;102043.52;110549;1255;23138;-50
2023/08/13 07:12:09;;;;;;;7.80;5.80;;;;;;;27.13;49.75;102045.61;110556;1260;22300;-51
2023/08/13 07:14:36;;;;;;;7.20;6.10;;;;;;;27.22;49.73;102043.30;110560;1253;22409;-50
2023/08/13 07:17:04;;;;;;;6.30;5.50;;;;;;;27.36;49.67;102040.75;110560;1253;22160;-51
2023/08/13 07:19:32;;;;;;;6.10;5.50;;;;;;;27.56;49.13;102038.97;110582;1252;23056;-51
2023/08/13 07:22:00;;;;;;;6.10;5.50;;;;;;;27.81;48.70;102038.52;110583;1267;22745;-51
2023/08/13 07:24:27;;;;;;;7.30;5.90;;;;;;;28.11;48.09;102037.36;110346;1267;22306;-51
2023/08/13 07:26:55;;;;;;;6.80;5.20;;;;;;;28.42;47.64;102036.59;110590;1254;22142;-51
2023/08/13 07:29:22;;;;;;;5.80;5.30;;;;;;;28.74;46.99;102036.94;110555;1256;23162;-51
2023/08/13 07:31:50;;;;;;;6.00;5.30;;;;;;;29.01;46.52;102037.91;110616;1253;22357;-51
2023/08/13 07:34:18;;;;;;;5.90;5.20;;;;;;;29.16;46.18;102039.42;110281;1267;22999;-51
2023/08/13 07:36:45;;;;;;;6.00;5.40;;;;;;;29.24;45.91;102037.91;110533;1267;22862;-51
2023/08/13 07:39:13;;;;;;;7.50;5.60;;;;;;;29.24;45.72;102039.98;110596;1269;22270;-51
2023/08/13 07:41:40;;;;;;;6.50;5.30;;;;;;;29.25;45.77;102039.78;110518;1275;23147;-51
2023/08/13 07:44:08;;;;;;;6.50;5.60;;;;;;;29.24;45.72;102046.64;110518;1269;22150;-51
2023/08/13 07:46:35;;;;;;;6.10;5.50;;;;;;;29.22;45.79;102046.39;110594;1256;22334;-51
2023/08/13 07:49:03;;;;;;;6.30;5.70;;;;;;;29.19;46.06;102041.64;110555;1275;22465;-51
2023/08/13 07:51:30;;;;;;;6.00;5.50;;;;;;;29.14;46.37;102042.58;110519;1256;22131;-51
2023/08/13 07:53:58;;;;;;;6.30;5.70;;;;;;;29.09;46.83;102043.36;110249;1272;22959;-51
2023/08/13 07:56:25;;;;;;;6.00;5.40;;;;;;;29.05;47.18;102043.50;110515;1275;22219;-51
2023/08/13 07:58:53;;;;;;;7.40;5.90;;;;;;;29.04;47.32;102045.19;110359;1273;22295;-51
2023/08/13 08:01:21;;;;;;;5.90;5.50;;;;;;;29.03;47.34;102042.91;110618;1257;22776;-51
2023/08/13 08:03:49;;;;;;;6.20;5.30;;;;;;;29.04;47.15;102042.52;110593;1254;22126;-51
2023/08/13 08:06:16;;;;;;;6.30;5.30;;;;;;;29.06;47.61;102039.65;110575;1256;22170;-51
2023/08/13 08:08:44;;;;;;;6.00;5.20;;;;;;;29.08;47.75;102037.70;110393;1271;22165;-51
2023/08/13 08:11:11;;;;;;;6.00;5.40;;;;;;;29.09;48.11;102037.11;110531;1256;22361;-50
2023/08/13 08:13:39;;;;;;;5.40;4.90;;;;;;;29.09;48.41;102035.80;110606;1263;22309;-51
2023/08/13 08:16:07;;;;;;;5.50;5.00;;;;;;;29.10;49.00;102034.85;110536;1275;22403;-51
2023/08/13 08:18:34;;;;;;;6.20;5.50;;;;;;;29.10;49.21;102036.84;110523;1267;22299;-51
2023/08/13 08:21:02;;;;;;;6.10;5.50;;;;;;;29.09;48.88;102035.45;110563;1275;22397;-51
2023/08/13 08:23:30;;;;;;;5.90;5.30;;;;;;;29.10;48.91;102035.75;110526;1257;22430;-51
2023/08/13 08:25:57;;;;;;;6.30;5.70;;;;;;;29.12;48.95;102032.92;110574;1253;22360;-51
2023/08/13 08:28:26;;;;;;;9.80;5.50;;;;;;;29.17;49.10;102038.75;110557;1256;22132;-51
2023/08/13 08:30:53;;;;;;;6.50;5.10;;;;;;;29.25;49.58;102029.39;110509;1267;22320;-51
2023/08/13 08:33:23;;;;;;;7.00;6.20;;;;;;;29.34;49.74;102027.92;110506;1271;22317;-52
2023/08/13 08:35:50;;;;;;;7.00;5.80;;;;;;;29.43;49.93;102033.48;110602;1257;22294;-51
2023/08/13 08:38:18;;;;;;;6.60;5.60;;;;;;;29.51;50.19;102029.40;110249;1269;22497;-51
2023/08/13 08:40:47;;;;;;;5.40;4.90;;;;;;;29.58;50.13;102023.78;110609;1255;22408;-51
2023/08/13 08:43:15;;;;;;;6.40;5.10;;;;;;;29.64;49.92;102023.27;110637;1267;22389;-51
2023/08/13 08:45:43;;;;;;;5.40;5.00;;;;;;;29.69;49.50;102017.53;110323;1256;269733;-51
2023/08/13 08:48:11;;;;;;;5.80;5.20;;;;;;;29.72;49.24;102016.75;110255;1275;22380;-51
2023/08/13 08:50:39;;;;;;;7.20;5.70;;;;;;;29.73;49.03;102015.58;110577;1269;22126;-51
2023/08/13 08:53:06;;;;;;;8.70;6.20;;;;;;;29.76;49.52;102011.77;110465;1256;22958;-50
2023/08/13 08:55:34;;;;;;;6.60;5.70;;;;;;;29.84;49.81;102010.94;110532;1275;22283;-51
2023/08/13 08:58:01;;;;;;;7.10;6.00;;;;;;;29.89;49.77;102012.46;110111;1258;22186;-51
2023/08/13 09:00:29;;;;;;;6.70;6.10;;;;;;;29.92;49.88;102009.71;110149;1271;22310;-51
2023/08/13 09:02:57;;;;;;;6.80;5.80;;;;;;;29.94;49.95;102006.88;110187;1260;22420;-51
2023/08/13 09:05:24;;;;;;;7.50;5.80;;;;;;;29.97;49.89;102009.49;110106;1260;22399;-51
2023/08/13 09:07:52;;;;;;;6.90;6.00;;;;;;;29.97;49.94;102011.94;110035;1279;22150;-51
2023/08/13 09:10:19;;;;;;;7.20;5.70;;;;;;;30.00;50.11;102013.00;110009;1262;22969;-51
2023/08/13 09:12:47;;;;;;;7.90;6.40;;;;;;;30.03;50.45;102012.89;110147;1260;22541;-51
2023/08/13 09:15:14;;;;;;;6.70;5.90;;;;;;;30.11;50.32;102014.39;110053;1259;22200;-51
2023/08/13 09:17:42;;;;;;;6.80;6.20;;;;;;;30.17;50.45;102015.83;110169;1258;23112;-51
2023/08/13 09:20:17;;;;;;;7.00;5.70;;;;;;;30.22;50.30;102013.95;109971;1279;22323;-51
2023/08/13 09:22:48;;;;;;;5.90;5.30;;;;;;;30.29;49.49;102011.58;110102;1279;22353;-51
2023/08/13 09:25:16;;;;;;;6.10;5.60;;;;;;;30.37;49.41;102014.14;110149;1258;22178;-52
2023/08/13 09:27:44;;;;;;;6.70;5.70;;;;;;;30.46;49.52;102015.48;110131;1259;22176;-51
2023/08/13 09:30:31;;;;;;;7.10;5.70;;;;;;;30.55;49.58;102015.80;110479;1269;22111;-51
2023/08/13 09:32:59;;;;;;;5.30;4.80;;;;;;;30.64;49.36;102015.43;110566;1258;22148;-52
2023/08/13 09:35:26;;;;;;;5.90;5.10;;;;;;;30.70;48.81;102014.52;110526;1275;22144;-51
2023/08/13 09:37:54;;;;;;;4.80;4.30;;;;;;;30.76;47.24;102012.40;110380;1256;22355;-51
2023/08/13 09:40:22;;;;;;;5.70;5.20;;;;;;;30.79;46.10;102011.80;110628;1253;22313;-51
2023/08/13 09:42:52;;;;;;;6.10;5.50;;;;;;;30.80;47.10;102011.09;110589;1256;23091;-51
2023/08/13 09:45:20;;;;;;;6.20;5.70;;;;;;;30.82;48.62;102013.28;110191;1267;22402;-51
2023/08/13 09:47:47;;;;;;;7.20;5.50;;;;;;;30.83;48.91;102013.77;110503;1259;22380;-51
2023/08/13 09:50:17;;;;;;;8.20;7.10;;;;;;;30.84;49.28;102012.77;110429;1266;22987;-51
2023/08/13 09:52:46;;;;;;;5.90;5.40;;;;;;;30.85;49.53;102011.56;110471;1256;22387;-51
2023/08/13 09:55:15;;;;;;;6.20;5.60;;;;;;;30.88;49.36;102012.61;110270;1272;22250;-51
2023/08/13 09:57:43;;;;;;;6.50;5.50;;;;;;;30.91;49.57;102009.99;110444;1259;22306;-51
2023/08/13 10:00:11;;;;;;;5.60;5.10;;;;;;;30.96;49.51;102012.09;110543;1275;22356;-51
2023/08/13 10:02:42;;;;;;;6.10;5.60;;;;;;;30.99;49.44;102008.92;110513;1275;22157;-51
2023/08/13 10:05:10;;;;;;;5.90;5.40;;;;;;;31.01;49.35;102011.64;110604;1253;22351;-51
2023/08/13 10:07:37;;;;;;;5.80;5.20;;;;;;;31.03;49.35;102015.02;110579;1256;22381;-51
2023/08/13 10:10:05;;;;;;;5.50;5.00;;;;;;;31.06;49.26;102013.68;110517;1269;22386;-51
2023/08/13 10:12:35;;;;;;;6.10;5.60;;;;;;;31.10;49.15;102015.30;110592;1257;22320;-51
2023/08/13 10:15:03;;;;;;;8.00;5.50;;;;;;;31.11;48.88;102018.06;110345;1263;22151;-52
2023/08/13 10:17:31;;;;;;;5.80;5.20;;;;;;;31.13;48.85;102016.63;110159;1259;22402;-51
2023/08/13 10:19:59;;;;;;;5.60;5.10;;;;;;;31.14;48.88;102017.49;110101;1259;22311;-51
2023/08/13 10:22:37;;;;;;;5.90;4.70;;;;;;;31.12;48.96;102013.82;110616;1256;22161;-51
2023/08/13 10:25:10;;;;;;;5.50;5.00;;;;;;;31.11;48.89;102009.29;110550;1269;22739;-51
2023/08/13 10:27:42;;;;;;;5.00;4.50;;;;;;;31.08;48.95;102010.23;110585;1267;22133;-51
2023/08/13 10:30:12;;;;;;;5.20;4.70;;;;;;;31.10;48.88;102013.70;110604;1257;23047;-51
2023/08/13 10:32:59;;;;;;;6.40;5.40;;;;;;;31.12;48.64;102014.95;110537;1275;22218;-51
2023/08/13 10:35:34;;;;;;;5.60;5.10;;;;;;;31.14;48.70;102014.08;110628;1267;22306;-51
2023/08/13 10:38:03;;;;;;;6.00;5.50;;;;;;;31.15;48.78;102015.70;110387;1259;22875;-51
2023/08/13 10:40:31;;;;;;;5.50;5.00;;;;;;;31.17;48.81;102015.00;110572;1253;22189;-50
2023/08/13 10:42:58;;;;;;;5.50;5.10;;;;;;;31.19;48.70;102008.91;110504;1269;22325;-51
2023/08/13 10:45:32;;;;;;;5.40;4.90;;;;;;;31.22;48.62;102012.82;110566;1256;22332;-51
2023/08/13 10:48:05;;;;;;;5.20;4.70;;;;;;;31.24;48.58;102009.89;110401;1275;22424;-51
2023/08/13 10:50:39;;;;;;;5.60;5.10;;;;;;;31.26;48.30;102008.80;110561;1256;22403;-51
2023/08/13 10:53:18;;;;;;;4.80;4.30;;;;;;;31.26;48.34;102008.41;110586;1256;22150;-52
2023/08/13 10:55:53;;;;;;;5.70;4.80;;;;;;;31.26;48.58;102005.55;110597;1257;22778;-51
2023/08/13 10:58:24;;;;;;;4.90;4.50;;;;;;;31.26;48.68;102006.29;110542;1257;22320;-51
2023/08/13 11:00:52;;;;;;;;;;;;;;;31.25;49.04;102006.59;110612;1254;22439;-52
2023/08/13 11:03:24;;;;;;;4.80;4.40;;;;;;;31.21;49.35;102002.77;110498;1270;22280;-51
2023/08/13 11:05:52;;;;;;;5.20;4.70;;;;;;;31.19;49.49;102005.67;110615;1255;22328;-51
2023/08/13 11:08:21;;;;;;;5.40;4.40;;;;;;;31.19;48.90;102004.05;110583;1253;22970;-51
2023/08/13 11:11:08;;;;;;;5.10;4.50;;;;;;;31.19;49.04;101998.90;110597;1269;22756;-51
2023/08/13 11:13:35;;;;;;;5.10;4.60;;;;;;;31.18;49.21;102001.45;110463;1270;22123;-51
2023/08/13 11:16:03;;;;;;;4.80;4.40;;;;;;;31.19;49.30;101999.81;110595;1257;22173;-52
2023/08/13 11:18:31;;;;;;;4.70;4.40;;;;;;;31.22;49.07;101997.14;110548;1253;22342;-51
2023/08/13 11:20:58;;;;;;;7.00;4.60;;;;;;;31.26;48.98;101996.48;110593;1253;22520;-51
2023/08/13 11:23:26;;;;;;;4.40;4.00;;;;;;;31.29;48.86;101997.61;110586;1257;22117;-51